Terminal Aerodrome Forecast
Issued by NWS

Home | Current Version | Previous Version | Text Only | Print | Product List | Glossary On
Versions: 1 2 3 4 5 6 7 8 9 10 11 12 13 14 15 16 17 18 19 20 21 22 23 24 25 26 27 28 29 30 31 32 33 34 35 36 37 38 39 40 41 42 43 44
785
FTAK31 PAFA 251144 CCA
TAFAMC
TAF COR
PAMC 251144Z 2512/2612 21008KT 6SM -SN BR SCT025 BKN035 OVC045
     FM251500 21008KT 4SM -SN BR SCT015 BKN025 OVC035
     FM251800 21010KT 2SM -SN BR SCT007 BKN015 OVC025
     FM252100 21015KT 1/2SM SN FZFG BKN007 OVC015
     FM260000 21015G25KT 1/2SM SN FZFG BKN003 OVC007=

USA.gov is the U.S. government's official web portal to all federal, state and local government web resources and services.